Airfield :
LOGIN :

Register | Disclaimer

   EN    FR    IT 

 










Legend :    VFR   Marginal VFR   IFR   Intensive IFR   Very Intensive IFR
Visi :
Ceiling :
>= 8 km
>= 3000ft
5 to 8 km
1000 to 3000 ft
1500m to 5 km
500 to 1000 ft
800 to 1500m
200 to 500 ft
< 800m
< 200 ft
Symbols :   Thunderstorms  Fog  Heavy snow  Heavy precipitations  Wind > 20 kt
SIGMETs :     Misc.  Thunderstorms  Icing  Turbulence  Mountain Waves  Volcanic Ashes







- Airport Elevation : 1079 ft


ETIK - Illesheim Air Base

CURRENT METAR :
  • 260656Z AUTO 26014KT 9999 CLR 11/05 A3005 RMK AO2 SLP178 T01100049 $

EXPIRED METARs :
  • 260556Z AUTO 26010KT 9999 OVC095 10/08 A3005 RMK AO2 SLP176 60000 T00950081 10110 20086 52015 $
  • 260456Z AUTO 25004KT 9999 FEW025 FEW031 OVC085 09/05 A3003 RMK AO2 SLP171 T00890053 $

TAF TAF ETIK
Valid from the 26 at 05:00 until the 27 at 11:00 UTC


260504Z 2605/2711 26009KT 9999 SCT020 BKN030 QNH3000INS
BECMG 2607/2608 27015G25KT 9999 BKN030 QNH3000INS
BECMG 2611/2612 28015G25KT 9999 SCT050 QNH3004INS
BECMG 2617/2618 27012KT 9999 FEW050 QNH3006INS
BECMG 2623/2624 VRB06KT 8000 BR FEW090 QNH3009INS
BECMG 2706/2707 12009KT 9999 NSW FEW130 QNH2999INS TX16/2615Z TN04/2703Z
No reported NOTAMs for that airfield.



MET'MAP, your aeronautical weather chart ! - Copyright ORBIFLY December 2007 - Disclaimer

ORBIFLY MET'MAP TEAM :

Programming & Development : Alexandra Zaïnal
Concept & Development : Baudouin d'Aumeries
Co-Development & Prog : Marc-Olivier Méhu
Technical & hardware support : Manuel Goepfert

Contact : metmap@orbifly.com




SOURCES & CREDITS :

   NOAA